createdAt,value
2019-02-08T00:00:31.369Z,33.63
2019-02-08T00:02:47.989Z,36.07
2019-02-08T00:05:04.344Z,31.30
2019-02-08T00:07:20.634Z,33.80
2019-02-08T00:09:55.205Z,34.53
2019-02-08T00:11:58.667Z,33.57
2019-02-08T00:14:16.213Z,31.53
2019-02-08T00:16:32.811Z,35.53
2019-02-08T00:18:48.871Z,30.57
2019-02-08T00:21:05.496Z,31.93
2019-02-08T00:23:26.641Z,35.33
2019-02-08T00:25:40.245Z,31.70
2019-02-08T00:27:56.787Z,32.60
2019-02-08T00:30:13.480Z,31.83
2019-02-08T00:32:31.843Z,30.57
2019-02-08T00:34:48.488Z,30.53
2019-02-08T00:37:05.163Z,30.90
2019-02-08T00:39:21.660Z,28.47
2019-02-08T00:41:38.266Z,31.23
2019-02-08T00:43:55.092Z,28.03
2019-02-08T00:46:11.768Z,28.40
2019-02-08T00:48:28.312Z,26.57
2019-02-08T00:50:44.303Z,24.73
2019-02-08T00:53:00.318Z,22.93
2019-02-08T00:55:16.979Z,25.83
2019-02-08T00:57:33.568Z,24.70
2019-02-08T00:59:50.228Z,24.63
2019-02-08T01:02:06.729Z,26.10
2019-02-08T01:04:23.315Z,25.33
2019-02-08T01:06:41.522Z,27.47
2019-02-08T01:08:57.882Z,26.83
2019-02-08T01:11:14.250Z,27.40
2019-02-08T01:13:35.250Z,23.50
2019-02-08T01:15:54.186Z,27.47
2019-02-08T01:18:10.786Z,26.90
2019-02-08T01:20:26.624Z,25.10
2019-02-08T01:22:42.481Z,23.57
2019-02-08T01:24:58.725Z,25.77
2019-02-08T01:27:14.993Z,26.53
2019-02-08T01:29:31.331Z,26.20
2019-02-08T01:31:47.739Z,23.97
2019-02-08T01:34:04.065Z,22.60
2019-02-08T01:36:22.890Z,26.50
2019-02-08T01:38:27.396Z,23.00
2019-02-08T01:40:51.000Z,23.00
2019-02-08T01:42:55.593Z,24.20
2019-02-08T01:47:48.080Z,25.93
2019-02-08T01:50:13.226Z,23.83
2019-02-08T01:52:29.095Z,23.07
2019-02-08T01:54:45.719Z,22.53
2019-02-08T01:57:05.203Z,22.13
2019-02-08T01:59:24.236Z,21.60
2019-02-08T02:01:40.532Z,24.80
2019-02-08T02:03:56.484Z,19.53
2019-02-08T02:08:33.128Z,24.03
2019-02-08T02:10:49.158Z,20.63
2019-02-08T02:13:05.579Z,18.87
2019-02-08T02:15:18.023Z,21.13
2019-02-08T02:17:41.609Z,24.30
2019-02-08T02:19:57.813Z,19.40
2019-02-08T02:22:14.183Z,21.83
2019-02-08T02:24:30.790Z,22.07
2019-02-08T02:26:46.707Z,20.40
2019-02-08T02:29:04.586Z,19.30
2019-02-08T02:31:22.894Z,22.57
2019-02-08T02:33:42.011Z,17.93
2019-02-08T02:35:58.242Z,17.70
2019-02-08T02:38:14.878Z,17.93
2019-02-08T02:40:31.468Z,19.97
2019-02-08T02:42:47.921Z,21.97
2019-02-08T02:45:04.217Z,20.53
2019-02-08T02:47:20.385Z,19.27
2019-02-08T02:49:36.100Z,17.77
2019-02-08T02:51:52.547Z,20.83
2019-02-08T02:54:08.575Z,19.17
2019-02-08T02:56:25.179Z,16.67
2019-02-08T02:58:41.777Z,16.03
2019-02-08T03:00:47.823Z,20.80
2019-02-08T03:03:11.816Z,17.70
2019-02-08T03:05:37.971Z,18.17
2019-02-08T03:07:54.173Z,17.37
2019-02-08T03:10:10.721Z,18.70
2019-02-08T03:12:28.551Z,18.50
2019-02-08T03:14:44.636Z,18.67
2019-02-08T03:17:00.936Z,19.40
2019-02-08T03:19:16.977Z,22.30
2019-02-08T03:21:33.522Z,17.77
2019-02-08T03:23:50.000Z,14.97
2019-02-08T03:26:06.635Z,18.53
2019-02-08T03:28:25.642Z,24.03
2019-02-08T03:30:59.705Z,17.67
2019-02-08T03:33:18.220Z,16.93
2019-02-08T03:35:34.436Z,16.53
2019-02-08T03:37:49.281Z,18.20
2019-02-08T03:40:31.986Z,19.87
2019-02-08T03:42:49.764Z,17.70
2019-02-08T03:45:05.702Z,18.10
2019-02-08T03:47:22.057Z,16.37
2019-02-08T03:49:39.292Z,16.00
2019-02-08T03:51:55.758Z,17.23
2019-02-08T03:54:29.896Z,18.03
2019-02-08T03:56:36.299Z,19.47
2019-02-08T03:58:52.801Z,14.93
2019-02-08T04:01:10.172Z,17.93
2019-02-08T04:03:27.675Z,23.57
2019-02-08T04:05:45.938Z,16.33
2019-02-08T04:08:05.138Z,15.43
2019-02-08T04:10:21.205Z,19.67
2019-02-08T04:12:37.251Z,17.37
2019-02-08T04:14:55.832Z,17.57
2019-02-08T04:17:12.461Z,14.90
2019-02-08T04:19:31.422Z,14.50
2019-02-08T04:21:47.317Z,15.47
2019-02-08T04:24:03.737Z,20.23
2019-02-08T04:26:20.007Z,17.40
2019-02-08T04:28:36.131Z,19.40
2019-02-08T04:33:11.437Z,14.60
2019-02-08T04:35:27.289Z,14.80
2019-02-08T04:37:43.339Z,15.97
2019-02-08T04:39:59.642Z,13.97
2019-02-08T04:42:18.765Z,18.53
2019-02-08T04:44:35.351Z,17.07
2019-02-08T04:46:56.408Z,17.67
2019-02-08T04:49:12.162Z,16.80
2019-02-08T04:51:30.049Z,13.17
2019-02-08T04:53:46.005Z,18.13
2019-02-08T04:56:12.153Z,18.27
2019-02-08T04:58:38.691Z,14.47
2019-02-08T05:00:44.792Z,20.17
2019-02-08T05:05:39.620Z,17.07
2019-02-08T05:07:55.778Z,19.33
2019-02-08T05:10:12.384Z,16.13
2019-02-08T05:12:28.769Z,17.57
2019-02-08T05:14:46.030Z,16.67
2019-02-08T05:17:02.496Z,12.70
2019-02-08T05:19:18.687Z,15.87
2019-02-08T05:21:35.043Z,19.77
2019-02-08T05:23:51.724Z,17.83
2019-02-08T05:26:08.260Z,16.03
2019-02-08T05:28:25.626Z,13.77
2019-02-08T05:30:41.946Z,14.50
2019-02-08T05:33:00.204Z,16.57
2019-02-08T05:35:16.263Z,16.00
2019-02-08T05:37:32.912Z,18.07
2019-02-08T05:39:49.359Z,15.60
2019-02-08T05:42:05.913Z,16.70
2019-02-08T05:44:22.328Z,18.47
2019-02-08T05:46:38.916Z,15.63
2019-02-08T05:51:16.262Z,17.17
2019-02-08T05:53:39.967Z,16.47
2019-02-08T05:56:03.614Z,15.83
2019-02-08T05:58:20.127Z,15.03
2019-02-08T06:03:24.159Z,16.17
2019-02-08T06:05:40.321Z,16.17
2019-02-08T06:13:10.191Z,15.50
2019-02-08T06:15:26.702Z,13.90
2019-02-08T06:17:50.089Z,15.27
2019-02-08T06:20:17.003Z,17.77
2019-02-08T06:25:03.856Z,12.40
2019-02-08T06:27:08.168Z,14.47
2019-02-08T06:31:27.592Z,15.37
2019-02-08T06:33:51.307Z,13.00
2019-02-08T06:36:07.495Z,14.57
2019-02-08T06:38:23.878Z,13.90
2019-02-08T06:40:40.023Z,14.37
2019-02-08T06:43:02.210Z,14.03
2019-02-08T06:45:02.321Z,16.87
2019-02-08T06:47:25.950Z,16.67
2019-02-08T06:49:43.178Z,16.07
2019-02-08T06:51:59.516Z,17.83
2019-02-08T06:57:07.089Z,18.53
2019-02-08T06:59:37.981Z,15.97
2019-02-08T07:02:13.341Z,15.37
2019-02-08T07:04:51.737Z,21.07
2019-02-08T07:10:05.495Z,14.73
2019-02-08T07:12:40.910Z,14.47
2019-02-08T07:15:16.058Z,17.30
2019-02-08T07:17:54.295Z,17.57
2019-02-08T07:20:29.902Z,18.83
2019-02-08T07:22:53.261Z,16.37
2019-02-08T07:25:54.824Z,17.00
2019-02-08T07:28:27.755Z,17.27
2019-02-08T07:31:03.259Z,16.90
2019-02-08T07:33:31.583Z,17.77
2019-02-08T07:36:14.019Z,16.33
2019-02-08T07:38:47.261Z,17.07
2019-02-08T07:41:29.771Z,15.57
2019-02-08T07:47:05.425Z,19.83
2019-02-08T07:49:42.024Z,18.50
2019-02-08T07:52:17.038Z,20.90
2019-02-08T07:57:29.277Z,17.83
2019-02-08T08:00:12.896Z,17.17
2019-02-08T08:02:38.317Z,12.93
2019-02-08T08:05:08.317Z,17.10
2019-02-08T08:07:43.237Z,15.70
2019-02-08T08:10:20.782Z,21.13
2019-02-08T08:12:55.962Z,17.07
2019-02-08T08:15:31.368Z,18.97
2019-02-08T08:18:05.075Z,17.40
2019-02-08T08:20:40.268Z,17.70
2019-02-08T08:23:09.865Z,18.83
2019-02-08T08:28:14.101Z,17.90
2019-02-08T08:30:27.297Z,15.20
2019-02-08T08:32:58.172Z,17.77
2019-02-08T08:35:43.774Z,16.93
2019-02-08T08:38:29.594Z,18.00
2019-02-08T08:40:45.904Z,18.57
2019-02-08T08:43:03.538Z,14.57
2019-02-08T08:45:21.958Z,13.67
2019-02-08T08:47:38.577Z,14.60
2019-02-08T08:50:21.412Z,13.70
2019-02-08T08:53:02.065Z,14.53
2019-02-08T08:55:44.697Z,13.60
2019-02-08T08:58:27.408Z,16.17
2019-02-08T09:03:37.757Z,16.60
2019-02-08T09:06:20.570Z,14.40
2019-02-08T09:08:57.098Z,15.87
2019-02-08T09:14:14.812Z,18.00
2019-02-08T09:16:58.799Z,20.50
2019-02-08T09:19:17.865Z,13.93
2019-02-08T09:22:00.549Z,12.47
2019-02-08T09:24:20.166Z,16.17
2019-02-08T09:29:43.297Z,15.00
2019-02-08T09:32:25.423Z,12.03
2019-02-08T09:35:08.320Z,15.30
2019-02-08T09:37:28.612Z,13.77
2019-02-08T09:40:13.843Z,16.03
2019-02-08T09:42:56.890Z,13.97
2019-02-08T09:48:40.549Z,14.87
2019-02-08T09:51:24.275Z,13.30
2019-02-08T09:53:43.554Z,13.20
2019-02-08T09:56:00.891Z,17.33
2019-02-08T09:58:46.686Z,21.13
2019-02-08T10:01:29.411Z,14.23
2019-02-08T10:04:19.978Z,15.33
2019-02-08T10:06:36.909Z,15.33
2019-02-08T10:09:19.684Z,16.33
2019-02-08T10:12:02.371Z,16.17
2019-02-08T10:14:45.185Z,15.83
2019-02-08T10:17:46.828Z,9.57
2019-02-08T10:20:29.890Z,14.60
2019-02-08T10:26:16.646Z,11.47
2019-02-08T10:28:32.873Z,8.80
2019-02-08T10:31:21.100Z,13.47
2019-02-08T10:34:23.015Z,11.03
2019-02-08T10:36:40.901Z,9.10
2019-02-08T10:39:23.675Z,14.17
2019-02-08T10:42:06.679Z,12.30
2019-02-08T10:44:49.576Z,12.97
2019-02-08T10:47:09.956Z,13.60
2019-02-08T10:49:52.830Z,14.93
2019-02-08T10:52:15.620Z,15.20
2019-02-08T10:54:33.845Z,9.43
2019-02-08T10:57:16.704Z,14.43
2019-02-08T10:59:59.443Z,14.40
2019-02-08T11:02:43.310Z,12.80
2019-02-08T11:05:41.121Z,15.17
2019-02-08T11:07:46.771Z,10.83
2019-02-08T11:12:46.654Z,16.17
2019-02-08T11:15:29.555Z,16.70
2019-02-08T11:18:14.277Z,13.77
2019-02-08T11:20:34.781Z,13.77
2019-02-08T11:22:51.032Z,13.77
2019-02-08T11:25:07.413Z,14.60
2019-02-08T11:27:33.167Z,12.50
2019-02-08T11:30:01.330Z,13.00
2019-02-08T11:32:42.913Z,14.03
2019-02-08T11:34:58.161Z,14.83
2019-02-08T11:37:25.187Z,14.57
2019-02-08T11:39:52.630Z,11.20
2019-02-08T11:44:37.513Z,15.67
2019-02-08T11:47:20.327Z,10.40
2019-02-08T11:49:40.919Z,10.63
2019-02-08T11:51:57.383Z,13.47
2019-02-08T11:56:17.719Z,11.20
2019-02-08T11:58:44.736Z,12.30
2019-02-08T12:00:53.965Z,14.83
2019-02-08T12:03:22.391Z,11.70
2019-02-08T12:05:27.311Z,15.90
2019-02-08T12:07:51.168Z,16.63
2019-02-08T12:10:16.950Z,18.37
2019-02-08T12:12:33.628Z,16.80
2019-02-08T12:14:50.978Z,19.77
2019-02-08T12:17:07.596Z,12.10
2019-02-08T12:19:33.099Z,14.23
2019-02-08T12:21:51.305Z,25.17
2019-02-08T12:23:56.543Z,17.87
2019-02-08T12:26:28.482Z,16.93
2019-02-08T12:28:25.559Z,17.87
2019-02-08T12:30:44.183Z,16.60
2019-02-08T12:33:12.836Z,25.90
2019-02-08T12:36:02.355Z,13.70
2019-02-08T12:38:26.216Z,21.53
2019-02-08T12:40:46.534Z,20.63
2019-02-08T12:43:04.661Z,19.77
2019-02-08T12:45:24.002Z,23.50
2019-02-08T12:50:15.177Z,13.03
2019-02-08T12:55:21.942Z,11.57
2019-02-08T12:57:48.154Z,22.90
2019-02-08T13:00:16.453Z,20.70
2019-02-08T13:02:40.087Z,14.67
2019-02-08T13:05:10.576Z,10.93
2019-02-08T13:07:15.232Z,10.50
2019-02-08T13:09:25.497Z,16.97
2019-02-08T13:12:08.067Z,10.73
2019-02-08T13:15:07.085Z,8.37
2019-02-08T13:17:18.264Z,11.47
2019-02-08T13:19:45.222Z,18.10
2019-02-08T13:22:25.439Z,11.83
2019-02-08T13:24:37.647Z,20.40
2019-02-08T13:26:53.853Z,33.37
2019-02-08T13:29:13.835Z,14.70
2019-02-08T13:31:38.685Z,10.47
2019-02-08T13:34:02.308Z,12.60
2019-02-08T13:36:24.427Z,9.67
2019-02-08T13:38:37.722Z,7.77
2019-02-08T13:40:42.250Z,6.70
2019-02-08T13:43:05.842Z,12.30
2019-02-08T13:45:23.124Z,5.97
2019-02-08T13:47:39.365Z,7.20
2019-02-08T13:49:47.122Z,8.93
2019-02-08T13:52:29.892Z,9.67
2019-02-08T13:54:36.470Z,11.23
2019-02-08T13:57:10.606Z,8.47
2019-02-08T13:59:26.977Z,7.80
2019-02-08T14:01:51.331Z,10.77
2019-02-08T14:03:55.980Z,11.67
2019-02-08T14:06:02.741Z,6.47
2019-02-08T14:08:07.603Z,6.30
2019-02-08T14:10:47.429Z,6.60
2019-02-08T14:13:02.063Z,4.73
2019-02-08T14:15:18.438Z,6.57
2019-02-08T14:17:23.023Z,7.13
2019-02-08T14:20:05.512Z,5.23
2019-02-08T14:22:22.103Z,8.90
2019-02-08T14:24:38.604Z,5.93
2019-02-08T14:26:57.856Z,9.10
2019-02-08T14:29:14.113Z,7.07
2019-02-08T14:31:23.228Z,7.20
2019-02-08T14:39:02.538Z,7.33
2019-02-08T14:44:46.760Z,6.63
2019-02-08T14:47:19.148Z,8.10
2019-02-08T14:52:15.358Z,9.37
2019-02-08T14:54:32.839Z,4.37
2019-02-08T14:56:49.904Z,7.57
2019-02-08T14:59:14.407Z,5.83
2019-02-08T15:01:39.060Z,6.50
2019-02-08T15:04:21.606Z,2.87
2019-02-08T15:06:39.523Z,7.30
2019-02-08T15:08:55.772Z,4.77
2019-02-08T15:11:12.472Z,7.40
2019-02-08T15:16:26.282Z,7.17
2019-02-08T15:18:38.814Z,4.60
2019-02-08T15:20:45.909Z,5.10
2019-02-08T15:23:09.816Z,5.80
2019-02-08T15:25:34.124Z,7.30
2019-02-08T15:27:42.268Z,6.53
2019-02-08T15:30:50.836Z,5.33
2019-02-08T15:33:06.752Z,6.40
2019-02-08T15:35:22.846Z,8.03
2019-02-08T15:37:28.854Z,5.63
2019-02-08T15:39:52.583Z,7.83
2019-02-08T15:41:57.381Z,5.13
2019-02-08T15:46:51.419Z,7.90
2019-02-08T15:49:40.023Z,7.23
2019-02-08T15:51:51.002Z,12.50
2019-02-08T15:57:10.081Z,9.03
2019-02-08T15:59:27.531Z,10.00
2019-02-08T16:01:43.704Z,9.57
2019-02-08T16:04:00.223Z,8.30
2019-02-08T16:06:40.405Z,7.70
2019-02-08T16:08:35.734Z,12.33
2019-02-08T16:11:19.937Z,9.90
2019-02-08T16:16:04.191Z,12.13
2019-02-08T16:18:29.846Z,12.20
2019-02-08T16:20:46.303Z,16.90
2019-02-08T16:23:04.215Z,9.90
2019-02-08T16:25:24.459Z,8.27
2019-02-08T16:27:50.099Z,10.47
2019-02-08T16:30:30.211Z,10.63
2019-02-08T16:32:43.346Z,11.93
2019-02-08T16:43:33.031Z,9.20
2019-02-08T16:45:49.327Z,10.50
2019-02-08T16:48:05.641Z,6.90
2019-02-08T16:53:35.281Z,8.47
2019-02-08T16:55:53.605Z,8.27
2019-02-08T17:01:05.534Z,10.13
2019-02-08T17:03:13.939Z,8.47
2019-02-08T17:05:30.340Z,14.20
2019-02-08T17:07:57.008Z,9.37
2019-02-08T17:10:15.000Z,8.37
2019-02-08T17:12:21.247Z,10.60
2019-02-08T17:19:54.997Z,11.27
2019-02-08T17:22:11.683Z,9.67
2019-02-08T17:24:16.309Z,10.43
2019-02-08T17:26:50.555Z,6.77
2019-02-08T17:32:11.715Z,6.03
2019-02-08T17:34:06.899Z,8.90
2019-02-08T17:39:11.677Z,9.43
2019-02-08T17:41:28.213Z,9.07
2019-02-08T17:46:30.897Z,9.27
2019-02-08T17:48:49.168Z,7.97
2019-02-08T17:51:07.828Z,9.80
2019-02-08T17:53:23.881Z,10.47
2019-02-08T17:55:40.294Z,6.93
2019-02-08T17:58:03.206Z,7.03
2019-02-08T18:00:03.584Z,11.27
2019-02-08T18:02:27.183Z,9.30
2019-02-08T18:07:08.504Z,6.13
2019-02-08T18:09:13.049Z,8.63
2019-02-08T18:11:39.366Z,6.73
2019-02-08T18:13:44.229Z,7.27
2019-02-08T18:16:26.953Z,7.83
2019-02-08T18:18:31.416Z,5.70
2019-02-08T18:21:16.696Z,7.30
2019-02-08T18:24:00.671Z,6.60
2019-02-08T18:26:17.190Z,4.93
2019-02-08T18:28:33.433Z,7.53
2019-02-08T18:30:49.956Z,7.07
2019-02-08T18:33:06.466Z,8.60
2019-02-08T18:37:45.536Z,7.77
2019-02-08T18:40:28.287Z,10.73
2019-02-08T18:42:44.334Z,8.03
2019-02-08T18:45:00.879Z,6.03
2019-02-08T18:47:26.146Z,6.33
2019-02-08T18:49:42.975Z,11.03
2019-02-08T18:52:01.826Z,10.40
2019-02-08T18:54:17.896Z,10.97
2019-02-08T18:56:56.995Z,7.57
2019-02-08T18:59:20.781Z,7.70
2019-02-08T19:01:37.522Z,7.83
2019-02-08T19:03:54.039Z,6.90
2019-02-08T19:06:17.786Z,6.93
2019-02-08T19:08:34.072Z,7.27
2019-02-08T19:11:17.491Z,6.20
2019-02-08T19:13:18.360Z,6.87
2019-02-08T19:15:35.061Z,5.97
2019-02-08T19:18:00.914Z,6.90
2019-02-08T19:20:40.152Z,9.63
2019-02-08T19:23:03.416Z,9.37
2019-02-08T19:25:17.782Z,8.37
2019-02-08T19:29:53.301Z,10.10
2019-02-08T19:32:23.256Z,6.97
2019-02-08T19:34:29.807Z,10.10
2019-02-08T19:36:48.872Z,7.80
2019-02-08T19:39:25.809Z,6.00
2019-02-08T19:41:42.141Z,7.67
2019-02-08T19:44:01.323Z,7.10
2019-02-08T19:46:17.420Z,9.87
2019-02-08T19:48:36.678Z,7.97
2019-02-08T19:50:53.240Z,8.43
2019-02-08T19:53:09.894Z,12.73
2019-02-08T19:55:26.323Z,8.77
2019-02-08T19:57:42.599Z,6.20
2019-02-08T20:00:02.244Z,7.80
2019-02-08T20:02:25.909Z,8.60
2019-02-08T20:04:44.251Z,9.57
2019-02-08T20:07:00.632Z,7.70
2019-02-08T20:09:19.604Z,15.10
2019-02-08T20:11:35.897Z,13.07
2019-02-08T20:13:53.335Z,14.93
2019-02-08T20:16:18.859Z,9.67
2019-02-08T20:18:55.513Z,10.83
2019-02-08T20:21:00.690Z,9.70
2019-02-08T20:23:17.930Z,10.67
2019-02-08T20:25:34.441Z,6.73
2019-02-08T20:27:56.833Z,11.27
2019-02-08T20:30:13.516Z,11.07
2019-02-08T20:32:39.849Z,9.73
2019-02-08T20:35:00.195Z,7.37
2019-02-08T20:40:26.132Z,9.97
2019-02-08T20:42:43.575Z,9.77
2019-02-08T20:45:02.318Z,12.67
2019-02-08T20:47:06.914Z,8.80
2019-02-08T20:49:32.197Z,9.67
2019-02-08T20:51:42.795Z,10.73
2019-02-08T20:53:50.026Z,10.30
2019-02-08T20:56:25.548Z,9.40
2019-02-08T20:59:09.159Z,8.77
2019-02-08T21:00:57.211Z,7.13
2019-02-08T21:03:14.167Z,6.80
2019-02-08T21:05:30.642Z,9.53
2019-02-08T21:07:46.786Z,7.20
2019-02-08T21:10:05.851Z,11.10
2019-02-08T21:12:29.492Z,7.50
2019-02-08T21:14:48.575Z,8.30
2019-02-08T21:17:05.702Z,8.27
2019-02-08T21:19:41.548Z,9.60
2019-02-08T21:21:47.399Z,6.00
2019-02-08T21:24:12.542Z,8.40
2019-02-08T21:26:36.192Z,9.53
2019-02-08T21:28:43.856Z,7.67
2019-02-08T21:31:04.401Z,8.93
2019-02-08T21:33:22.798Z,9.90
2019-02-08T21:35:49.606Z,11.17
2019-02-08T21:38:13.939Z,7.43
2019-02-08T21:40:35.578Z,10.13
2019-02-08T21:42:51.661Z,6.60
2019-02-08T21:45:10.659Z,7.20
2019-02-08T21:47:27.752Z,10.20
2019-02-08T21:49:44.498Z,9.63
2019-02-08T21:52:00.724Z,12.27
2019-02-08T21:54:21.768Z,10.70
2019-02-08T21:59:30.738Z,10.03
2019-02-08T22:04:19.880Z,8.27
2019-02-08T22:09:17.408Z,10.20
2019-02-08T22:11:34.513Z,11.90
2019-02-08T22:13:50.484Z,10.37
2019-02-08T22:16:09.543Z,10.40
2019-02-08T22:18:28.019Z,11.57
2019-02-08T22:22:49.130Z,10.23
2019-02-08T22:25:05.752Z,7.90
2019-02-08T22:27:22.181Z,11.70
2019-02-08T22:29:38.489Z,11.83
2019-02-08T22:31:57.505Z,10.57
2019-02-08T22:34:14.132Z,7.47
2019-02-08T22:36:30.300Z,8.40
2019-02-08T22:38:46.692Z,14.27
2019-02-08T22:41:02.729Z,9.33
2019-02-08T22:43:19.328Z,8.50
2019-02-08T22:45:38.668Z,6.23
2019-02-08T22:48:23.009Z,7.33
2019-02-08T22:50:53.691Z,8.10
2019-02-08T22:52:58.382Z,6.60
2019-02-08T22:57:40.083Z,6.23
2019-02-08T23:00:08.222Z,7.13
2019-02-08T23:02:26.483Z,7.97
2019-02-08T23:05:22.274Z,7.10
2019-02-08T23:07:09.627Z,11.47
2019-02-08T23:09:32.588Z,7.70
2019-02-08T23:11:53.578Z,10.77
2019-02-08T23:14:11.273Z,8.17
2019-02-08T23:16:28.075Z,11.13
2019-02-08T23:19:01.872Z,9.00
2019-02-08T23:21:23.933Z,8.90
2019-02-08T23:23:42.479Z,7.53
2019-02-08T23:26:26.148Z,6.10
2019-02-08T23:28:43.805Z,8.57
2019-02-08T23:31:01.591Z,6.20
2019-02-08T23:33:19.677Z,11.60
2019-02-08T23:35:42.865Z,7.00
2019-02-08T23:37:47.090Z,8.73
2019-02-08T23:42:21.790Z,8.33
2019-02-08T23:44:40.738Z,8.50
2019-02-08T23:47:08.728Z,9.13
2019-02-08T23:49:21.352Z,6.60
2019-02-08T23:52:05.327Z,7.33
2019-02-08T23:55:06.276Z,8.67
2019-02-08T23:57:09.543Z,8.70
2019-02-08T23:59:25.544Z,8.43
